Marla — SVA6670 — position and weather

sailwx.info

Track history (hours):
 
Tides and Currents Weather Stations Pressure Air Temp Water Temp Dewpoint Dewpoint Depression Visibility Wind Speed Wind Dir Waves Ship Positions

Marla

Last reported at 2018-Jun-18 18:56 UTC. Time now 2018-Jun-21 23:50 UTC.
Position N 37°10' E 025°48'.

Length 49 m; draft 3.2 m.

Type: Ship. MMSI: 241416000.

Date/timePositionNaut miles runAvg speedWind from/ knotsBaromVisibWave heightAir tempDewpointWater temp
2018-Jun-18 18:56N 37°10' E 025°48'512.8
2018-Jun-18 18:31N 37°11' E 025°41'913.0
2018-Jun-18 17:48N 37°13' E 025°30'412.4
2018-Jun-18 17:30N 37°14' E 025°25'612.5
2018-Jun-18 17:00N 37°16' E 025°18'712.5
2018-Jun-18 16:27N 37°18' E 025°09'712.6
2018-Jun-18 15:56N 37°19' E 025°01'512.6
2018-Jun-18 15:30N 37°21' E 024°55'613.0
2018-Jun-18 15:00N 37°23' E 024°47'5012.7
2018-Jun-18 11:02N 37°43' E 023°49'112.9
2018-Jun-18 10:59N 37°43' E 023°48'612.7
2018-Jun-18 10:30N 37°48' E 023°44'713.2
2018-Jun-18 10:00N 37°54' E 023°41'1 2.8
2018-Jun-18 09:30N 37°56' E 023°41'0 0.0
2018-Jun-18 09:00N 37°56' E 023°41'0 0.0
2018-Jun-18 08:30N 37°56' E 023°41'0 0.0
2018-Jun-18 08:00N 37°56' E 023°41'0 0.0
2018-Jun-18 07:30N 37°56' E 023°41'0 0.0
2018-Jun-18 07:00N 37°56' E 023°41'0 0.0
2018-Jun-18 06:30N 37°56' E 023°41'0 0.0
2018-Jun-18 06:00N 37°56' E 023°41'0 0.0
2018-Jun-18 05:30N 37°56' E 023°41'0 0.0
2018-Jun-18 05:00N 37°56' E 023°41'0 0.0
2018-Jun-18 04:30N 37°56' E 023°41'0 0.0
2018-Jun-18 04:00N 37°56' E 023°41'0 0.0
2018-Jun-18 03:30N 37°56' E 023°41'0 0.0
2018-Jun-18 03:00N 37°56' E 023°41'0 0.0
2018-Jun-18 02:30N 37°56' E 023°41'0 0.0
2018-Jun-18 02:00N 37°56' E 023°41'0 0.0
2018-Jun-18 01:30N 37°56' E 023°41'0 0.0
2018-Jun-18 01:00N 37°56' E 023°41'0 0.0
2018-Jun-18 00:30N 37°56' E 023°41'0 0.0
2018-Jun-18 00:00N 37°56' E 023°41'0 0.0
2018-Jun-17 23:30N 37°56' E 023°41'0 0.0
2018-Jun-17 23:00N 37°56' E 023°41'0 0.0
2018-Jun-17 22:30N 37°56' E 023°41'0 0.0
2018-Jun-17 22:00N 37°56' E 023°41'0 0.0
2018-Jun-17 21:30N 37°56' E 023°41'0 0.0
2018-Jun-17 21:00N 37°56' E 023°41'0 0.0
2018-Jun-17 20:30N 37°56' E 023°41'0 0.0
2018-Jun-17 20:00N 37°56' E 023°41'0 0.0
2018-Jun-17 19:30N 37°56' E 023°41'0 1.0
2018-Jun-17 19:00N 37°56' E 023°40'612.4
2018-Jun-17 18:30N 37°50' E 023°43'3 5.0
2018-Jun-17 17:58N 37°49' E 023°46'0 0.0
2018-Jun-17 17:30N 37°49' E 023°46'0 0.0
2018-Jun-17 16:59N 37°49' E 023°46'0 0.0
2018-Jun-17 16:30N 37°49' E 023°46'0 0.0
2018-Jun-17 15:59N 37°49' E 023°46'0 0.0
2018-Jun-17 15:30N 37°49' E 023°46'0 0.0
2018-Jun-17 14:54N 37°49' E 023°46'0 0.0
2018-Jun-17 14:31N 37°49' E 023°46'0 0.0
2018-Jun-17 14:00N 37°49' E 023°46'0 0.0
2018-Jun-17 13:29N 37°49' E 023°46'0 0.1
2018-Jun-17 13:00N 37°49' E 023°46'0 0.0
2018-Jun-17 12:30N 37°49' E 023°46'0 0.0
2018-Jun-17 12:00N 37°49' E 023°46'0 0.0
2018-Jun-17 11:30N 37°49' E 023°46'0 0.0
2018-Jun-17 11:00N 37°49' E 023°46'0 0.0
2018-Jun-17 10:30N 37°49' E 023°46'0 0.0
2018-Jun-17 10:00N 37°49' E 023°46'0 0.0
2018-Jun-17 09:29N 37°49' E 023°46'0 0.0
2018-Jun-17 08:59N 37°49' E 023°46'0 0.0
2018-Jun-17 08:30N 37°49' E 023°46'1 1.5
2018-Jun-17 08:00N 37°48' E 023°46'4912.2
2018-Jun-17 03:59N 37°31' E 024°44'713.4
2018-Jun-17 03:29N 37°31' E 024°52'812.8
2018-Jun-17 02:51N 37°30' E 025°03'412.8
2018-Jun-17 02:30N 37°29' E 025°08'712.9
2018-Jun-17 02:00N 37°28' E 025°16'3 6.0
2018-Jun-17 01:30N 37°27' E 025°19'0 0.0
2018-Jun-17 01:00N 37°27' E 025°19'0 0.0
2018-Jun-17 00:30N 37°27' E 025°19'0 0.0
2018-Jun-17 00:00N 37°27' E 025°19'0 0.0
2018-Jun-16 23:21N 37°27' E 025°19'0 0.0
2018-Jun-16 23:00N 37°27' E 025°19'0 0.0
2018-Jun-16 22:30N 37°27' E 025°19'0 0.0
2018-Jun-16 22:00N 37°27' E 025°19'0 0.0
2018-Jun-16 21:30N 37°27' E 025°19'0 0.0
2018-Jun-16 20:57N 37°27' E 025°19'0 0.0
2018-Jun-16 20:30N 37°27' E 025°19'0 0.0
2018-Jun-16 20:00N 37°27' E 025°19'0 0.0
2018-Jun-16 19:30N 37°27' E 025°19'0 0.0
2018-Jun-16 19:00N 37°27' E 025°19'0 0.0
2018-Jun-16 18:27N 37°27' E 025°19'0 0.0
2018-Jun-16 18:00N 37°27' E 025°19'0 0.0
2018-Jun-16 17:27N 37°27' E 025°19'0 0.0
2018-Jun-16 17:00N 37°27' E 025°19'2 3.5
2018-Jun-16 16:31N 37°26' E 025°17'5 9.9
2018-Jun-16 16:01N 37°24' E 025°23'2 2.5
2018-Jun-16 15:24N 37°25' E 025°24'0 0.0
2018-Jun-16 15:00N 37°25' E 025°24'0 0.0
2018-Jun-16 14:27N 37°25' E 025°24'0 0.0
2018-Jun-16 14:00N 37°25' E 025°24'0 0.0
2018-Jun-16 13:24N 37°25' E 025°24'0 0.0
2018-Jun-16 13:00N 37°25' E 025°24'0 0.0
2018-Jun-16 12:27N 37°25' E 025°24'0 0.0
2018-Jun-16 11:57N 37°25' E 025°24'0 0.0
2018-Jun-16 11:30N 37°25' E 025°24'0 0.0
2018-Jun-16 11:00N 37°25' E 025°24'0 0.0
2018-Jun-16 10:30N 37°25' E 025°24'0 0.0
2018-Jun-16 10:00N 37°25' E 025°24'0 0.0
2018-Jun-16 09:30N 37°25' E 025°24'0 0.0
2018-Jun-16 08:57N 37°25' E 025°24'0 0.0
2018-Jun-16 08:30N 37°25' E 025°24'0 0.0
2018-Jun-16 07:57N 37°25' E 025°24'0 0.0
2018-Jun-16 07:30N 37°25' E 025°24'0 0.0
2018-Jun-16 07:00N 37°25' E 025°24'0 0.1
2018-Jun-16 06:31N 37°25' E 025°24'510.2
2018-Jun-16 06:00N 37°24' E 025°18'3 5.2
2018-Jun-16 05:24N 37°27' E 025°20'0 0.1
2018-Jun-16 05:00N 37°27' E 025°20'0 0.0
2018-Jun-16 04:30N 37°27' E 025°20'0 0.0
2018-Jun-16 04:00N 37°27' E 025°20'0 0.0
2018-Jun-16 03:30N 37°27' E 025°20'0 0.0
2018-Jun-16 02:57N 37°27' E 025°20'0 0.0
2018-Jun-16 02:30N 37°27' E 025°20'0 0.0
2018-Jun-16 02:00N 37°27' E 025°20'0 0.0
2018-Jun-16 01:27N 37°27' E 025°20'0 0.0
2018-Jun-16 01:00N 37°27' E 025°20'0 0.0
2018-Jun-16 00:30N 37°27' E 025°20'0 0.0
2018-Jun-15 23:57N 37°27' E 025°20'0 0.0
2018-Jun-15 23:27N 37°27' E 025°20'0 0.0
2018-Jun-15 23:00N 37°27' E 025°20'0 0.0
2018-Jun-15 22:12N 37°27' E 025°20'0 0.0
2018-Jun-15 22:00N 37°27' E 025°20'0 0.0
2018-Jun-15 21:21N 37°27' E 025°20'0 0.0
2018-Jun-15 20:57N 37°27' E 025°20'0 0.0
2018-Jun-15 20:24N 37°27' E 025°20'0 0.0
2018-Jun-15 19:45N 37°27' E 025°20'0 0.0
2018-Jun-15 19:24N 37°27' E 025°20'0 0.0
2018-Jun-15 18:42N 37°27' E 025°20'0 0.0
2018-Jun-15 18:27N 37°27' E 025°20'0 0.0
2018-Jun-15 18:00N 37°27' E 025°20'0 0.0
2018-Jun-15 17:30N 37°27' E 025°20'0 0.0
2018-Jun-15 17:00N 37°27' E 025°20'1 2.2
2018-Jun-15 16:29N 37°27' E 025°18'4 8.5
2018-Jun-15 16:00N 37°24' E 025°21'3 6.0
2018-Jun-15 15:26N 37°26' E 025°24'0 0.0
2018-Jun-15 14:59N 37°26' E 025°24'0 0.0
2018-Jun-15 14:26N 37°26' E 025°24'0 0.0
2018-Jun-15 13:59N 37°26' E 025°24'0 0.0
2018-Jun-15 13:29N 37°26' E 025°24'0 0.0
2018-Jun-15 12:56N 37°26' E 025°24'0 0.0
2018-Jun-15 12:17N 37°26' E 025°24'0 0.0
2018-Jun-15 11:56N 37°26' E 025°24'0 0.0
2018-Jun-15 11:29N 37°26' E 025°24'0 0.0
2018-Jun-15 10:59N 37°26' E 025°24'0 0.0
2018-Jun-15 10:29N 37°26' E 025°24'0 0.0
2018-Jun-15 09:59N 37°26' E 025°24'0 0.0
2018-Jun-15 09:29N 37°26' E 025°24'0 0.0
2018-Jun-15 08:59N 37°26' E 025°24'0 0.0
2018-Jun-15 08:30N 37°26' E 025°24'0 0.0
2018-Jun-15 08:01N 37°26' E 025°24'0 0.0
2018-Jun-15 07:31N 37°26' E 025°24'1 2.1
2018-Jun-15 07:00N 37°25' E 025°24'3 5.3
2018-Jun-15 06:31N 37°24' E 025°21'4 6.9
2018-Jun-15 05:59N 37°27' E 025°19'1 1.4
2018-Jun-15 05:31N 37°27' E 025°20'0 0.0
2018-Jun-15 04:53N 37°27' E 025°20'0 0.0
2018-Jun-15 04:30N 37°27' E 025°20'0 0.0
2018-Jun-15 04:00N 37°27' E 025°20'0 0.0
2018-Jun-15 03:30N 37°27' E 025°20'0 0.0
2018-Jun-15 02:57N 37°27' E 025°20'0 0.0
2018-Jun-15 02:30N 37°27' E 025°20'0 0.0
2018-Jun-15 01:59N 37°27' E 025°20'0 0.0
2018-Jun-15 01:30N 37°27' E 025°20'0 0.0
2018-Jun-15 01:00N 37°27' E 025°20'0 0.0
2018-Jun-15 00:29N 37°27' E 025°20'0 0.0
2018-Jun-15 00:00N 37°27' E 025°20'0 0.0
2018-Jun-14 23:30N 37°27' E 025°20'0 0.0
2018-Jun-14 22:59N 37°27' E 025°20'0 0.0
2018-Jun-14 22:30N 37°27' E 025°20'0 0.0
2018-Jun-14 21:39N 37°27' E 025°20'0 0.0
2018-Jun-14 21:24N 37°27' E 025°20'0 0.0
2018-Jun-14 20:57N 37°27' E 025°20'0 0.0
2018-Jun-14 20:26N 37°27' E 025°20'0 0.0
2018-Jun-14 20:00N 37°27' E 025°20'0 0.0
2018-Jun-14 18:52N 37°27' E 025°20'0 0.0
2018-Jun-14 18:30N 37°27' E 025°20'0 0.0
2018-Jun-14 18:00N 37°27' E 025°20'0 0.0
2018-Jun-14 17:30N 37°27' E 025°20'0 0.0
2018-Jun-14 17:00N 37°27' E 025°20'0 0.0
2018-Jun-14 16:30N 37°27' E 025°20'0 0.0
2018-Jun-14 15:59N 37°27' E 025°20'0 0.8
2018-Jun-14 15:30N 37°27' E 025°19'0 0.1
2018-Jun-14 15:00N 37°27' E 025°19'3 5.6
2018-Jun-14 14:30N 37°27' E 025°16'3 5.1
2018-Jun-14 13:59N 37°26' E 025°13'0 0.0
2018-Jun-14 13:31N 37°26' E 025°13'0 0.0
2018-Jun-14 12:55N 37°26' E 025°13'0 0.0
2018-Jun-14 12:30N 37°26' E 025°13'0 0.0
2018-Jun-14 12:00N 37°26' E 025°13'0 0.0
2018-Jun-14 11:30N 37°26' E 025°13'0 0.0
2018-Jun-14 11:00N 37°26' E 025°13'0 0.0
2018-Jun-14 10:30N 37°26' E 025°13'0 0.0
2018-Jun-14 09:59N 37°26' E 025°13'0 0.0
2018-Jun-14 09:30N 37°26' E 025°13'0 0.0
2018-Jun-14 09:00N 37°26' E 025°13'0 0.0
2018-Jun-14 08:30N 37°26' E 025°13'0 0.0
2018-Jun-14 07:59N 37°26' E 025°13'0 0.0
2018-Jun-14 07:26N 37°26' E 025°13'0 0.0
2018-Jun-14 06:55N 37°26' E 025°13'0 0.0
2018-Jun-14 06:11N 37°26' E 025°13'0 0.1
2018-Jun-14 06:00N 37°26' E 025°13'0 0.0
2018-Jun-14 05:31N 37°26' E 025°13'0 0.0
2018-Jun-14 04:17N 37°26' E 025°13'0 0.0
2018-Jun-14 04:00N 37°26' E 025°13'0 0.0
2018-Jun-14 03:30N 37°26' E 025°13'0 0.1
2018-Jun-14 02:59N 37°26' E 025°13'0 0.2
2018-Jun-14 02:29N 37°26' E 025°13'3 6.1
2018-Jun-14 01:59N 37°28' E 025°10'1711.6
2018-Jun-14 00:30N 37°32' E 024°49'5312.0
2018-Jun-13 20:05N 37°47' E 023°44'113.0
2018-Jun-13 20:00N 37°48' E 023°44'612.8
2018-Jun-13 19:30N 37°54' E 023°41'2 0.5
2018-Jun-13 14:38N 37°56' E 023°41'0 0.0
2018-Jun-13 14:29N 37°56' E 023°41'0 0.0
2018-Jun-13 13:59N 37°56' E 023°41'0 0.0
2018-Jun-13 13:29N 37°56' E 023°41'0 0.0
2018-Jun-13 12:59N 37°56' E 023°41'0 0.0
2018-Jun-13 12:29N 37°56' E 023°41'0 0.0
2018-Jun-13 11:59N 37°56' E 023°41'0 0.0
2018-Jun-13 11:29N 37°56' E 023°41'0 0.0
2018-Jun-13 10:59N 37°56' E 023°41'0 0.0
2018-Jun-13 10:29N 37°56' E 023°41'0 0.0
2018-Jun-13 09:59N 37°56' E 023°41'0 0.0
2018-Jun-13 09:29N 37°56' E 023°41'0 0.0
2018-Jun-13 08:59N 37°56' E 023°41'0 0.0
2018-Jun-13 08:29N 37°56' E 023°41'0 0.0
2018-Jun-13 07:59N 37°56' E 023°41'0 0.0
2018-Jun-13 07:29N 37°56' E 023°41'0 0.0
2018-Jun-13 06:59N 37°56' E 023°41'0 0.0
2018-Jun-13 06:29N 37°56' E 023°41'0 0.0
2018-Jun-13 05:59N 37°56' E 023°41'0 0.0
2018-Jun-13 05:29N 37°56' E 023°41'0 0.0
2018-Jun-13 04:59N 37°56' E 023°41'0 0.0
2018-Jun-13 04:29N 37°56' E 023°41'0 0.0
2018-Jun-13 03:59N 37°56' E 023°41'0 0.0
2018-Jun-13 03:29N 37°56' E 023°41'0 0.0
2018-Jun-13 02:59N 37°56' E 023°41'0 0.0
2018-Jun-13 02:29N 37°56' E 023°41'0 0.0
2018-Jun-13 01:59N 37°56' E 023°41'0 0.0
2018-Jun-13 01:29N 37°56' E 023°41'0 0.0
2018-Jun-13 00:59N 37°56' E 023°41'0 0.0
2018-Jun-13 00:29N 37°56' E 023°41'0 0.0
2018-Jun-12 23:59N 37°56' E 023°41'0 0.0
2018-Jun-12 23:29N 37°56' E 023°41'0 0.0
2018-Jun-12 22:59N 37°56' E 023°41'0 0.0
2018-Jun-12 22:29N 37°56' E 023°41'0 0.0
2018-Jun-12 21:59N 37°56' E 023°41'0 0.0
2018-Jun-12 21:29N 37°56' E 023°41'0 0.0
2018-Jun-12 20:59N 37°56' E 023°41'0 0.0
2018-Jun-12 20:29N 37°56' E 023°41'0 0.0
2018-Jun-12 19:59N 37°56' E 023°41'0 0.0
2018-Jun-12 19:29N 37°56' E 023°41'0 0.0
2018-Jun-12 18:59N 37°56' E 023°41'0 0.0
2018-Jun-12 18:29N 37°56' E 023°41'0 0.0
2018-Jun-12 17:59N 37°56' E 023°41'0 0.0
2018-Jun-12 17:29N 37°56' E 023°41'0 0.0
2018-Jun-12 16:59N 37°56' E 023°41'0 0.0
2018-Jun-12 16:29N 37°56' E 023°41'0 0.0
2018-Jun-12 15:59N 37°56' E 023°41'0 0.0
2018-Jun-12 15:29N 37°56' E 023°41'0 0.0
2018-Jun-12 14:59N 37°56' E 023°41'0 0.0
2018-Jun-12 14:29N 37°56' E 023°41'0 0.0
2018-Jun-12 13:59N 37°56' E 023°41'0 0.0
2018-Jun-12 13:29N 37°56' E 023°41'0 0.0
2018-Jun-12 12:59N 37°56' E 023°41'0 0.0
2018-Jun-12 12:29N 37°56' E 023°41'0 0.0
2018-Jun-12 11:59N 37°56' E 023°41'0 0.0
2018-Jun-12 11:29N 37°56' E 023°41'0 0.0
2018-Jun-12 10:59N 37°56' E 023°41'0 0.0
2018-Jun-12 10:29N 37°56' E 023°41'0 0.0
2018-Jun-12 09:59N 37°56' E 023°41'0 0.0
2018-Jun-12 09:29N 37°56' E 023°41'0 0.0
2018-Jun-12 08:59N 37°56' E 023°41'0 0.0
2018-Jun-12 08:29N 37°56' E 023°41'0 0.0
2018-Jun-12 07:59N 37°56' E 023°41'0 0.0
2018-Jun-12 07:26N 37°56' E 023°41'0 0.0
2018-Jun-12 06:56N 37°56' E 023°41'0 0.0
2018-Jun-12 06:29N 37°56' E 023°41'0 0.0
2018-Jun-12 05:59N 37°56' E 023°41'0 0.0
2018-Jun-12 05:29N 37°56' E 023°41'0 0.0
2018-Jun-12 04:59N 37°56' E 023°41'0 0.0
2018-Jun-12 04:29N 37°56' E 023°41'0 0.0
2018-Jun-12 03:59N 37°56' E 023°41'0 0.0
2018-Jun-12 03:26N 37°56' E 023°41'0 0.0
2018-Jun-12 02:59N 37°56' E 023°41'0 0.0
2018-Jun-12 02:29N 37°56' E 023°41'0 0.0
2018-Jun-12 01:59N 37°56' E 023°41'0 0.0
2018-Jun-12 01:29N 37°56' E 023°41'0 0.0
2018-Jun-12 00:59N 37°56' E 023°41'0 0.0
2018-Jun-12 00:29N 37°56' E 023°41'0 0.0
2018-Jun-11 23:59N 37°56' E 023°41'0 0.0
2018-Jun-11 23:29N 37°56' E 023°41'0 0.0
2018-Jun-11 22:59N 37°56' E 023°41'0 0.0
2018-Jun-11 22:29N 37°56' E 023°41'0 0.0
2018-Jun-11 21:59N 37°56' E 023°41'0 0.0
2018-Jun-11 21:29N 37°56' E 023°41'0 0.0
2018-Jun-11 20:59N 37°56' E 023°41'0 0.0
2018-Jun-11 20:26N 37°56' E 023°41'0 0.0
2018-Jun-11 19:59N 37°56' E 023°41'0 0.0
2018-Jun-11 19:29N 37°56' E 023°41'0 0.0
2018-Jun-11 18:59N 37°56' E 023°41'0 0.0
2018-Jun-11 18:29N 37°56' E 023°41'0 0.0
2018-Jun-11 17:59N 37°56' E 023°41'0 0.0
2018-Jun-11 17:29N 37°56' E 023°41'0 0.0
2018-Jun-11 16:59N 37°56' E 023°41'0 0.0
2018-Jun-11 16:29N 37°56' E 023°41'0 0.0
2018-Jun-11 15:59N 37°56' E 023°41'0 0.0
2018-Jun-11 15:29N 37°56' E 023°41'0 0.0
2018-Jun-11 14:56N 37°56' E 023°41'0 0.0
2018-Jun-11 14:29N 37°56' E 023°41'0 0.0
2018-Jun-11 13:59N 37°56' E 023°41'0 0.0
2018-Jun-11 13:29N 37°56' E 023°41'0 0.0
2018-Jun-11 12:59N 37°56' E 023°41'0 0.0
2018-Jun-11 12:29N 37°56' E 023°41'0 0.0
2018-Jun-11 11:59N 37°56' E 023°41'0 0.0
2018-Jun-11 11:29N 37°56' E 023°41'0 0.0
2018-Jun-11 10:59N 37°56' E 023°41'0 0.0
2018-Jun-11 10:29N 37°56' E 023°41'0 0.0
2018-Jun-11 09:59N 37°56' E 023°41'0 0.0
2018-Jun-11 09:29N 37°56' E 023°41'0 0.0
2018-Jun-11 08:59N 37°56' E 023°41'0 0.0
2018-Jun-11 08:29N 37°56' E 023°41'0 0.0
2018-Jun-11 07:59N 37°56' E 023°41'0 0.0
2018-Jun-11 07:29N 37°56' E 023°41'0 0.0
2018-Jun-11 06:59N 37°56' E 023°41'0 0.0
2018-Jun-11 06:29N 37°56' E 023°41'0 0.0
2018-Jun-11 05:59N 37°56' E 023°41'0 0.0
2018-Jun-11 05:29N 37°56' E 023°41'0 0.0
2018-Jun-11 04:59N 37°56' E 023°41'0 0.0
2018-Jun-11 04:29N 37°56' E 023°41'0 0.0
2018-Jun-11 03:59N 37°56' E 023°41'0 0.0
2018-Jun-11 03:29N 37°56' E 023°41'0 0.0
2018-Jun-11 02:59N 37°56' E 023°41'0 0.0
2018-Jun-11 02:29N 37°56' E 023°41'0 0.0
2018-Jun-11 01:59N 37°56' E 023°41'0 0.0
2018-Jun-11 01:29N 37°56' E 023°41'0 0.0
2018-Jun-11 00:59N 37°56' E 023°41'0 0.0
2018-Jun-11 00:29N 37°56' E 023°41'0 0.0
2018-Jun-10 23:59N 37°56' E 023°41'0 0.0
2018-Jun-10 23:29N 37°56' E 023°41'0 0.0
2018-Jun-10 22:59N 37°56' E 023°41'0 0.0
2018-Jun-10 22:29N 37°56' E 023°41'0 0.0
2018-Jun-10 21:59N 37°56' E 023°41'0 0.0
2018-Jun-10 21:29N 37°56' E 023°41'0 0.0
2018-Jun-10 20:59N 37°56' E 023°41'0 0.0
2018-Jun-10 20:29N 37°56' E 023°41'0 0.0
2018-Jun-10 19:59N 37°56' E 023°41'0 0.0
2018-Jun-10 19:29N 37°56' E 023°41'0 0.0
2018-Jun-10 18:59N 37°56' E 023°41'0 0.0
2018-Jun-10 18:29N 37°56' E 023°41'0 0.0
2018-Jun-10 17:56N 37°56' E 023°41'0 0.0
2018-Jun-10 17:29N 37°56' E 023°41'0 0.0
2018-Jun-10 16:59N 37°56' E 023°41'0 0.0
2018-Jun-10 16:29N 37°56' E 023°41'0 0.0
2018-Jun-10 15:59N 37°56' E 023°41'0 0.0
2018-Jun-10 15:29N 37°56' E 023°41'0 0.0
2018-Jun-10 14:59N 37°56' E 023°41'0 0.0
2018-Jun-10 13:59N 37°56' E 023°41'0 0.0
2018-Jun-10 13:29N 37°56' E 023°41'0 0.0
2018-Jun-10 12:59N 37°56' E 023°41'0 0.0
2018-Jun-10 12:29N 37°56' E 023°41'0 0.0
2018-Jun-10 11:59N 37°56' E 023°41'0 0.0
2018-Jun-10 11:26N 37°56' E 023°41'0 0.0
2018-Jun-10 10:59N 37°56' E 023°41'0 0.0
2018-Jun-10 10:29N 37°56' E 023°41'0 0.0
2018-Jun-10 09:59N 37°56' E 023°41'0 0.0
2018-Jun-10 09:29N 37°56' E 023°41'0 0.0
2018-Jun-10 08:59N 37°56' E 023°41'0 0.0
2018-Jun-10 08:29N 37°56' E 023°41'0 0.0
2018-Jun-10 07:59N 37°56' E 023°41'0 0.0
2018-Jun-10 07:29N 37°56' E 023°41'0 0.0
2018-Jun-10 06:59N 37°56' E 023°41'0 0.0
2018-Jun-10 06:29N 37°56' E 023°41'0 0.0
2018-Jun-10 05:59N 37°56' E 023°41'0 0.0
2018-Jun-10 05:29N 37°56' E 023°41'0 0.0
2018-Jun-10 04:59N 37°56' E 023°41'0 0.0
2018-Jun-10 04:29N 37°56' E 023°41'0 0.0
2018-Jun-10 03:59N 37°56' E 023°41'0 0.0
2018-Jun-10 03:29N 37°56' E 023°41'0 0.0
2018-Jun-10 02:59N 37°56' E 023°41'0 0.0
2018-Jun-10 02:29N 37°56' E 023°41'0 0.0
2018-Jun-10 01:59N 37°56' E 023°41'0 0.0
2018-Jun-10 01:29N 37°56' E 023°41'0 0.0
2018-Jun-10 00:59N 37°56' E 023°41'0 0.0
2018-Jun-10 00:29N 37°56' E 023°41'0 0.0
2018-Jun-09 23:59N 37°56' E 023°41'0 0.0
2018-Jun-09 23:29N 37°56' E 023°41'0 0.0
2018-Jun-09 22:59N 37°56' E 023°41'0 0.0
2018-Jun-09 22:29N 37°56' E 023°41'0 0.0
2018-Jun-09 21:59N 37°56' E 023°41'0 0.0
2018-Jun-09 21:26N 37°56' E 023°41'0 0.0
2018-Jun-09 20:56N 37°56' E 023°41'0 0.0
2018-Jun-09 20:29N 37°56' E 023°41'0 0.0
2018-Jun-09 19:59N 37°56' E 023°41'0 0.0
2018-Jun-09 19:29N 37°56' E 023°41'0 0.0
2018-Jun-09 18:59N 37°56' E 023°41'0 0.0
2018-Jun-09 18:29N 37°56' E 023°41'0 0.0
2018-Jun-09 17:56N 37°56' E 023°41'0 0.0
2018-Jun-09 17:29N 37°56' E 023°41'0 0.0
2018-Jun-09 16:56N 37°56' E 023°41'0 0.0
2018-Jun-09 16:29N 37°56' E 023°41'0 0.0
2018-Jun-09 15:59N 37°56' E 023°41'0 0.0
2018-Jun-09 15:29N 37°56' E 023°41'0 0.0
2018-Jun-09 14:29N 37°56' E 023°41'0 0.0
2018-Jun-09 13:59N 37°56' E 023°41'0 0.0
2018-Jun-09 13:26N 37°56' E 023°41'0 0.0
2018-Jun-09 12:59N 37°56' E 023°41'0 0.0
2018-Jun-09 12:29N 37°56' E 023°41'0 0.0
2018-Jun-09 11:59N 37°56' E 023°41'0 0.0
2018-Jun-09 11:29N 37°56' E 023°41'0 0.0
2018-Jun-09 10:59N 37°56' E 023°41'0 0.0
2018-Jun-09 10:29N 37°56' E 023°41'0 0.0
2018-Jun-09 09:59N 37°56' E 023°41'0 0.0
2018-Jun-09 09:29N 37°56' E 023°41'0 0.0
2018-Jun-09 08:56N 37°56' E 023°41'0 0.0
2018-Jun-09 08:29N 37°56' E 023°41'0 0.0
2018-Jun-09 07:59N 37°56' E 023°41'0 0.0
2018-Jun-09 07:29N 37°56' E 023°41'0 0.0
2018-Jun-09 06:59N 37°56' E 023°41'0 0.0
2018-Jun-09 06:29N 37°56' E 023°41'0 0.0
2018-Jun-09 05:59N 37°56' E 023°41'0 0.0
2018-Jun-09 05:29N 37°56' E 023°41'0 0.0
2018-Jun-09 04:59N 37°56' E 023°41'0 0.0
2018-Jun-09 04:29N 37°56' E 023°41'0 0.0
2018-Jun-09 03:59N 37°56' E 023°41'0 0.0
2018-Jun-09 03:29N 37°56' E 023°41'0 0.0
2018-Jun-09 02:59N 37°56' E 023°41'0 0.0
2018-Jun-09 02:29N 37°56' E 023°41'0 0.0
2018-Jun-09 01:59N 37°56' E 023°41'0 0.0
2018-Jun-09 01:29N 37°56' E 023°41'0 0.0
2018-Jun-09 00:59N 37°56' E 023°41'0 0.0
2018-Jun-09 00:29N 37°56' E 023°41'0 0.0
2018-Jun-08 23:59N 37°56' E 023°41'0 0.0
2018-Jun-08 23:29N 37°56' E 023°41'0 0.0
2018-Jun-08 22:59N 37°56' E 023°41'0 0.0
2018-Jun-08 22:29N 37°56' E 023°41'0 0.0
2018-Jun-08 21:59N 37°56' E 023°41'0 0.0
2018-Jun-08 21:29N 37°56' E 023°41'0 0.0
2018-Jun-08 20:53N 37°56' E 023°41'0 0.0
2018-Jun-08 20:29N 37°56' E 023°41'0 0.0
2018-Jun-08 19:59N 37°56' E 023°41'0 0.0
2018-Jun-08 19:29N 37°56' E 023°41'0 0.0
2018-Jun-08 18:59N 37°56' E 023°41'  
Track history (hours):
 
Tides and Currents Weather Stations Pressure Air Temp Water Temp Dewpoint Dewpoint Depression Visibility Wind Speed Wind Dir Waves Ship Positions

Marla

Last reported at 2018-Jun-18 18:56 UTC. Time now 2018-Jun-21 23:50 UTC.
Position N 37°10' E 025°48'.

Length 49 m; draft 3.2 m.

Type: Ship. MMSI: 241416000.

Date/timePositionNaut miles runAvg speedWind from/ knotsBaromVisibWave heightAir tempDewpointWater temp
2018-Jun-18 18:56N 37°10' E 025°48'512.8
2018-Jun-18 18:31N 37°11' E 025°41'913.0
2018-Jun-18 17:48N 37°13' E 025°30'412.4
2018-Jun-18 17:30N 37°14' E 025°25'612.5
2018-Jun-18 17:00N 37°16' E 025°18'712.5
2018-Jun-18 16:27N 37°18' E 025°09'712.6
2018-Jun-18 15:56N 37°19' E 025°01'512.6
2018-Jun-18 15:30N 37°21' E 024°55'613.0
2018-Jun-18 15:00N 37°23' E 024°47'5012.7
2018-Jun-18 11:02N 37°43' E 023°49'112.9
2018-Jun-18 10:59N 37°43' E 023°48'612.7
2018-Jun-18 10:30N 37°48' E 023°44'713.2
2018-Jun-18 10:00N 37°54' E 023°41'1 2.8
2018-Jun-18 09:30N 37°56' E 023°41'0 0.0
2018-Jun-18 09:00N 37°56' E 023°41'0 0.0
2018-Jun-18 08:30N 37°56' E 023°41'0 0.0
2018-Jun-18 08:00N 37°56' E 023°41'0 0.0
2018-Jun-18 07:30N 37°56' E 023°41'0 0.0
2018-Jun-18 07:00N 37°56' E 023°41'0 0.0
2018-Jun-18 06:30N 37°56' E 023°41'0 0.0
2018-Jun-18 06:00N 37°56' E 023°41'0 0.0
2018-Jun-18 05:30N 37°56' E 023°41'0 0.0
2018-Jun-18 05:00N 37°56' E 023°41'0 0.0
2018-Jun-18 04:30N 37°56' E 023°41'0 0.0
2018-Jun-18 04:00N 37°56' E 023°41'0 0.0
2018-Jun-18 03:30N 37°56' E 023°41'0 0.0
2018-Jun-18 03:00N 37°56' E 023°41'0 0.0
2018-Jun-18 02:30N 37°56' E 023°41'0 0.0
2018-Jun-18 02:00N 37°56' E 023°41'0 0.0
2018-Jun-18 01:30N 37°56' E 023°41'0 0.0
2018-Jun-18 01:00N 37°56' E 023°41'0 0.0
2018-Jun-18 00:30N 37°56' E 023°41'0 0.0
2018-Jun-18 00:00N 37°56' E 023°41'0 0.0
2018-Jun-17 23:30N 37°56' E 023°41'0 0.0
2018-Jun-17 23:00N 37°56' E 023°41'0 0.0
2018-Jun-17 22:30N 37°56' E 023°41'0 0.0
2018-Jun-17 22:00N 37°56' E 023°41'0 0.0
2018-Jun-17 21:30N 37°56' E 023°41'0 0.0
2018-Jun-17 21:00N 37°56' E 023°41'0 0.0
2018-Jun-17 20:30N 37°56' E 023°41'0 0.0
2018-Jun-17 20:00N 37°56' E 023°41'0 0.0
2018-Jun-17 19:30N 37°56' E 023°41'0 1.0
2018-Jun-17 19:00N 37°56' E 023°40'612.4
2018-Jun-17 18:30N 37°50' E 023°43'3 5.0
2018-Jun-17 17:58N 37°49' E 023°46'0 0.0
2018-Jun-17 17:30N 37°49' E 023°46'0 0.0
2018-Jun-17 16:59N 37°49' E 023°46'0 0.0
2018-Jun-17 16:30N 37°49' E 023°46'0 0.0
2018-Jun-17 15:59N 37°49' E 023°46'0 0.0
2018-Jun-17 15:30N 37°49' E 023°46'0 0.0
2018-Jun-17 14:54N 37°49' E 023°46'0 0.0
2018-Jun-17 14:31N 37°49' E 023°46'0 0.0
2018-Jun-17 14:00N 37°49' E 023°46'0 0.0
2018-Jun-17 13:29N 37°49' E 023°46'0 0.1
2018-Jun-17 13:00N 37°49' E 023°46'0 0.0
2018-Jun-17 12:30N 37°49' E 023°46'0 0.0
2018-Jun-17 12:00N 37°49' E 023°46'0 0.0
2018-Jun-17 11:30N 37°49' E 023°46'0 0.0
2018-Jun-17 11:00N 37°49' E 023°46'0 0.0
2018-Jun-17 10:30N 37°49' E 023°46'0 0.0
2018-Jun-17 10:00N 37°49' E 023°46'0 0.0
2018-Jun-17 09:29N 37°49' E 023°46'0 0.0
2018-Jun-17 08:59N 37°49' E 023°46'0 0.0
2018-Jun-17 08:30N 37°49' E 023°46'1 1.5
2018-Jun-17 08:00N 37°48' E 023°46'4912.2
2018-Jun-17 03:59N 37°31' E 024°44'713.4
2018-Jun-17 03:29N 37°31' E 024°52'812.8
2018-Jun-17 02:51N 37°30' E 025°03'412.8
2018-Jun-17 02:30N 37°29' E 025°08'712.9
2018-Jun-17 02:00N 37°28' E 025°16'3 6.0
2018-Jun-17 01:30N 37°27' E 025°19'0 0.0
2018-Jun-17 01:00N 37°27' E 025°19'0 0.0
2018-Jun-17 00:30N 37°27' E 025°19'0 0.0
2018-Jun-17 00:00N 37°27' E 025°19'0 0.0
2018-Jun-16 23:21N 37°27' E 025°19'0 0.0
2018-Jun-16 23:00N 37°27' E 025°19'0 0.0
2018-Jun-16 22:30N 37°27' E 025°19'0 0.0
2018-Jun-16 22:00N 37°27' E 025°19'0 0.0
2018-Jun-16 21:30N 37°27' E 025°19'0 0.0
2018-Jun-16 20:57N 37°27' E 025°19'0 0.0
2018-Jun-16 20:30N 37°27' E 025°19'0 0.0
2018-Jun-16 20:00N 37°27' E 025°19'0 0.0
2018-Jun-16 19:30N 37°27' E 025°19'0 0.0
2018-Jun-16 19:00N 37°27' E 025°19'0 0.0
2018-Jun-16 18:27N 37°27' E 025°19'0 0.0
2018-Jun-16 18:00N 37°27' E 025°19'0 0.0
2018-Jun-16 17:27N 37°27' E 025°19'0 0.0
2018-Jun-16 17:00N 37°27' E 025°19'2 3.5
2018-Jun-16 16:31N 37°26' E 025°17'5 9.9
2018-Jun-16 16:01N 37°24' E 025°23'2 2.5
2018-Jun-16 15:24N 37°25' E 025°24'0 0.0
2018-Jun-16 15:00N 37°25' E 025°24'0 0.0
2018-Jun-16 14:27N 37°25' E 025°24'0 0.0
2018-Jun-16 14:00N 37°25' E 025°24'0 0.0
2018-Jun-16 13:24N 37°25' E 025°24'0 0.0
2018-Jun-16 13:00N 37°25' E 025°24'0 0.0
2018-Jun-16 12:27N 37°25' E 025°24'0 0.0
2018-Jun-16 11:57N 37°25' E 025°24'0 0.0
2018-Jun-16 11:30N 37°25' E 025°24'0 0.0
2018-Jun-16 11:00N 37°25' E 025°24'0 0.0
2018-Jun-16 10:30N 37°25' E 025°24'0 0.0
2018-Jun-16 10:00N 37°25' E 025°24'0 0.0
2018-Jun-16 09:30N 37°25' E 025°24'0 0.0
2018-Jun-16 08:57N 37°25' E 025°24'0 0.0
2018-Jun-16 08:30N 37°25' E 025°24'0 0.0
2018-Jun-16 07:57N 37°25' E 025°24'0 0.0
2018-Jun-16 07:30N 37°25' E 025°24'0 0.0
2018-Jun-16 07:00N 37°25' E 025°24'0 0.1
2018-Jun-16 06:31N 37°25' E 025°24'510.2
2018-Jun-16 06:00N 37°24' E 025°18'3 5.2
2018-Jun-16 05:24N 37°27' E 025°20'0 0.1
2018-Jun-16 05:00N 37°27' E 025°20'0 0.0
2018-Jun-16 04:30N 37°27' E 025°20'0 0.0
2018-Jun-16 04:00N 37°27' E 025°20'0 0.0
2018-Jun-16 03:30N 37°27' E 025°20'0 0.0
2018-Jun-16 02:57N 37°27' E 025°20'0 0.0
2018-Jun-16 02:30N 37°27' E 025°20'0 0.0
2018-Jun-16 02:00N 37°27' E 025°20'0 0.0
2018-Jun-16 01:27N 37°27' E 025°20'0 0.0
2018-Jun-16 01:00N 37°27' E 025°20'0 0.0
2018-Jun-16 00:30N 37°27' E 025°20'0 0.0
2018-Jun-15 23:57N 37°27' E 025°20'0 0.0
2018-Jun-15 23:27N 37°27' E 025°20'0 0.0
2018-Jun-15 23:00N 37°27' E 025°20'0 0.0
2018-Jun-15 22:12N 37°27' E 025°20'0 0.0
2018-Jun-15 22:00N 37°27' E 025°20'0 0.0
2018-Jun-15 21:21N 37°27' E 025°20'0 0.0
2018-Jun-15 20:57N 37°27' E 025°20'0 0.0
2018-Jun-15 20:24N 37°27' E 025°20'0 0.0
2018-Jun-15 19:45N 37°27' E 025°20'0 0.0
2018-Jun-15 19:24N 37°27' E 025°20'0 0.0
2018-Jun-15 18:42N 37°27' E 025°20'0 0.0
2018-Jun-15 18:27N 37°27' E 025°20'0 0.0
2018-Jun-15 18:00N 37°27' E 025°20'0 0.0
2018-Jun-15 17:30N 37°27' E 025°20'0 0.0
2018-Jun-15 17:00N 37°27' E 025°20'1 2.2
2018-Jun-15 16:29N 37°27' E 025°18'4 8.5
2018-Jun-15 16:00N 37°24' E 025°21'3 6.0
2018-Jun-15 15:26N 37°26' E 025°24'0 0.0
2018-Jun-15 14:59N 37°26' E 025°24'0 0.0
2018-Jun-15 14:26N 37°26' E 025°24'0 0.0
2018-Jun-15 13:59N 37°26' E 025°24'0 0.0
2018-Jun-15 13:29N 37°26' E 025°24'0 0.0
2018-Jun-15 12:56N 37°26' E 025°24'0 0.0
2018-Jun-15 12:17N 37°26' E 025°24'0 0.0
2018-Jun-15 11:56N 37°26' E 025°24'0 0.0
2018-Jun-15 11:29N 37°26' E 025°24'0 0.0
2018-Jun-15 10:59N 37°26' E 025°24'0 0.0
2018-Jun-15 10:29N 37°26' E 025°24'0 0.0
2018-Jun-15 09:59N 37°26' E 025°24'0 0.0
2018-Jun-15 09:29N 37°26' E 025°24'0 0.0
2018-Jun-15 08:59N 37°26' E 025°24'0 0.0
2018-Jun-15 08:30N 37°26' E 025°24'0 0.0
2018-Jun-15 08:01N 37°26' E 025°24'0 0.0
2018-Jun-15 07:31N 37°26' E 025°24'1 2.1
2018-Jun-15 07:00N 37°25' E 025°24'3 5.3
2018-Jun-15 06:31N 37°24' E 025°21'4 6.9
2018-Jun-15 05:59N 37°27' E 025°19'1 1.4
2018-Jun-15 05:31N 37°27' E 025°20'0 0.0
2018-Jun-15 04:53N 37°27' E 025°20'0 0.0
2018-Jun-15 04:30N 37°27' E 025°20'0 0.0
2018-Jun-15 04:00N 37°27' E 025°20'0 0.0
2018-Jun-15 03:30N 37°27' E 025°20'0 0.0
2018-Jun-15 02:57N 37°27' E 025°20'0 0.0
2018-Jun-15 02:30N 37°27' E 025°20'0 0.0
2018-Jun-15 01:59N 37°27' E 025°20'0 0.0
2018-Jun-15 01:30N 37°27' E 025°20'0 0.0
2018-Jun-15 01:00N 37°27' E 025°20'0 0.0
2018-Jun-15 00:29N 37°27' E 025°20'0 0.0
2018-Jun-15 00:00N 37°27' E 025°20'0 0.0
2018-Jun-14 23:30N 37°27' E 025°20'0 0.0
2018-Jun-14 22:59N 37°27' E 025°20'0 0.0
2018-Jun-14 22:30N 37°27' E 025°20'0 0.0
2018-Jun-14 21:39N 37°27' E 025°20'0 0.0
2018-Jun-14 21:24N 37°27' E 025°20'0 0.0
2018-Jun-14 20:57N 37°27' E 025°20'0 0.0
2018-Jun-14 20:26N 37°27' E 025°20'0 0.0
2018-Jun-14 20:00N 37°27' E 025°20'0 0.0
2018-Jun-14 18:52N 37°27' E 025°20'0 0.0
2018-Jun-14 18:30N 37°27' E 025°20'0 0.0
2018-Jun-14 18:00N 37°27' E 025°20'0 0.0
2018-Jun-14 17:30N 37°27' E 025°20'0 0.0
2018-Jun-14 17:00N 37°27' E 025°20'0 0.0
2018-Jun-14 16:30N 37°27' E 025°20'0 0.0
2018-Jun-14 15:59N 37°27' E 025°20'0 0.8
2018-Jun-14 15:30N 37°27' E 025°19'0 0.1
2018-Jun-14 15:00N 37°27' E 025°19'3 5.6
2018-Jun-14 14:30N 37°27' E 025°16'3 5.1
2018-Jun-14 13:59N 37°26' E 025°13'0 0.0
2018-Jun-14 13:31N 37°26' E 025°13'0 0.0
2018-Jun-14 12:55N 37°26' E 025°13'0 0.0
2018-Jun-14 12:30N 37°26' E 025°13'0 0.0
2018-Jun-14 12:00N 37°26' E 025°13'0 0.0
2018-Jun-14 11:30N 37°26' E 025°13'0 0.0
2018-Jun-14 11:00N 37°26' E 025°13'0 0.0
2018-Jun-14 10:30N 37°26' E 025°13'0 0.0
2018-Jun-14 09:59N 37°26' E 025°13'0 0.0
2018-Jun-14 09:30N 37°26' E 025°13'0 0.0
2018-Jun-14 09:00N 37°26' E 025°13'0 0.0
2018-Jun-14 08:30N 37°26' E 025°13'0 0.0
2018-Jun-14 07:59N 37°26' E 025°13'0 0.0
2018-Jun-14 07:26N 37°26' E 025°13'0 0.0
2018-Jun-14 06:55N 37°26' E 025°13'0 0.0
2018-Jun-14 06:11N 37°26' E 025°13'0 0.1
2018-Jun-14 06:00N 37°26' E 025°13'0 0.0
2018-Jun-14 05:31N 37°26' E 025°13'0 0.0
2018-Jun-14 04:17N 37°26' E 025°13'0 0.0
2018-Jun-14 04:00N 37°26' E 025°13'0 0.0
2018-Jun-14 03:30N 37°26' E 025°13'0 0.1
2018-Jun-14 02:59N 37°26' E 025°13'0 0.2
2018-Jun-14 02:29N 37°26' E 025°13'3 6.1
2018-Jun-14 01:59N 37°28' E 025°10'1711.6
2018-Jun-14 00:30N 37°32' E 024°49'5312.0
2018-Jun-13 20:05N 37°47' E 023°44'113.0
2018-Jun-13 20:00N 37°48' E 023°44'612.8
2018-Jun-13 19:30N 37°54' E 023°41'2 0.5
2018-Jun-13 14:38N 37°56' E 023°41'0 0.0
2018-Jun-13 14:29N 37°56' E 023°41'0 0.0
2018-Jun-13 13:59N 37°56' E 023°41'0 0.0
2018-Jun-13 13:29N 37°56' E 023°41'0 0.0
2018-Jun-13 12:59N 37°56' E 023°41'0 0.0
2018-Jun-13 12:29N 37°56' E 023°41'0 0.0
2018-Jun-13 11:59N 37°56' E 023°41'0 0.0
2018-Jun-13 11:29N 37°56' E 023°41'0 0.0
2018-Jun-13 10:59N 37°56' E 023°41'0 0.0
2018-Jun-13 10:29N 37°56' E 023°41'0 0.0
2018-Jun-13 09:59N 37°56' E 023°41'0 0.0
2018-Jun-13 09:29N 37°56' E 023°41'0 0.0
2018-Jun-13 08:59N 37°56' E 023°41'0 0.0
2018-Jun-13 08:29N 37°56' E 023°41'0 0.0
2018-Jun-13 07:59N 37°56' E 023°41'0 0.0
2018-Jun-13 07:29N 37°56' E 023°41'0 0.0
2018-Jun-13 06:59N 37°56' E 023°41'0 0.0
2018-Jun-13 06:29N 37°56' E 023°41'0 0.0
2018-Jun-13 05:59N 37°56' E 023°41'0 0.0
2018-Jun-13 05:29N 37°56' E 023°41'0 0.0
2018-Jun-13 04:59N 37°56' E 023°41'0 0.0
2018-Jun-13 04:29N 37°56' E 023°41'0 0.0
2018-Jun-13 03:59N 37°56' E 023°41'0 0.0
2018-Jun-13 03:29N 37°56' E 023°41'0 0.0
2018-Jun-13 02:59N 37°56' E 023°41'0 0.0
2018-Jun-13 02:29N 37°56' E 023°41'0 0.0
2018-Jun-13 01:59N 37°56' E 023°41'0 0.0
2018-Jun-13 01:29N 37°56' E 023°41'0 0.0
2018-Jun-13 00:59N 37°56' E 023°41'0 0.0
2018-Jun-13 00:29N 37°56' E 023°41'0 0.0
2018-Jun-12 23:59N 37°56' E 023°41'0 0.0
2018-Jun-12 23:29N 37°56' E 023°41'0 0.0
2018-Jun-12 22:59N 37°56' E 023°41'0 0.0
2018-Jun-12 22:29N 37°56' E 023°41'0 0.0
2018-Jun-12 21:59N 37°56' E 023°41'0 0.0
2018-Jun-12 21:29N 37°56' E 023°41'0 0.0
2018-Jun-12 20:59N 37°56' E 023°41'0 0.0
2018-Jun-12 20:29N 37°56' E 023°41'0 0.0
2018-Jun-12 19:59N 37°56' E 023°41'0 0.0
2018-Jun-12 19:29N 37°56' E 023°41'0 0.0
2018-Jun-12 18:59N 37°56' E 023°41'0 0.0
2018-Jun-12 18:29N 37°56' E 023°41'0 0.0
2018-Jun-12 17:59N 37°56' E 023°41'0 0.0
2018-Jun-12 17:29N 37°56' E 023°41'0 0.0
2018-Jun-12 16:59N 37°56' E 023°41'0 0.0
2018-Jun-12 16:29N 37°56' E 023°41'0 0.0
2018-Jun-12 15:59N 37°56' E 023°41'0 0.0
2018-Jun-12 15:29N 37°56' E 023°41'0 0.0
2018-Jun-12 14:59N 37°56' E 023°41'0 0.0
2018-Jun-12 14:29N 37°56' E 023°41'0 0.0
2018-Jun-12 13:59N 37°56' E 023°41'0 0.0
2018-Jun-12 13:29N 37°56' E 023°41'0 0.0
2018-Jun-12 12:59N 37°56' E 023°41'0 0.0
2018-Jun-12 12:29N 37°56' E 023°41'0 0.0
2018-Jun-12 11:59N 37°56' E 023°41'0 0.0
2018-Jun-12 11:29N 37°56' E 023°41'0 0.0
2018-Jun-12 10:59N 37°56' E 023°41'0 0.0
2018-Jun-12 10:29N 37°56' E 023°41'0 0.0
2018-Jun-12 09:59N 37°56' E 023°41'0 0.0
2018-Jun-12 09:29N 37°56' E 023°41'0 0.0
2018-Jun-12 08:59N 37°56' E 023°41'0 0.0
2018-Jun-12 08:29N 37°56' E 023°41'0 0.0
2018-Jun-12 07:59N 37°56' E 023°41'0 0.0
2018-Jun-12 07:26N 37°56' E 023°41'0 0.0
2018-Jun-12 06:56N 37°56' E 023°41'0 0.0
2018-Jun-12 06:29N 37°56' E 023°41'0 0.0
2018-Jun-12 05:59N 37°56' E 023°41'0 0.0
2018-Jun-12 05:29N 37°56' E 023°41'0 0.0
2018-Jun-12 04:59N 37°56' E 023°41'0 0.0
2018-Jun-12 04:29N 37°56' E 023°41'0 0.0
2018-Jun-12 03:59N 37°56' E 023°41'0 0.0
2018-Jun-12 03:26N 37°56' E 023°41'0 0.0
2018-Jun-12 02:59N 37°56' E 023°41'0 0.0
2018-Jun-12 02:29N 37°56' E 023°41'0 0.0
2018-Jun-12 01:59N 37°56' E 023°41'0 0.0
2018-Jun-12 01:29N 37°56' E 023°41'0 0.0
2018-Jun-12 00:59N 37°56' E 023°41'0 0.0
2018-Jun-12 00:29N 37°56' E 023°41'0 0.0
2018-Jun-11 23:59N 37°56' E 023°41'0 0.0
2018-Jun-11 23:29N 37°56' E 023°41'0 0.0
2018-Jun-11 22:59N 37°56' E 023°41'0 0.0
2018-Jun-11 22:29N 37°56' E 023°41'0 0.0
2018-Jun-11 21:59N 37°56' E 023°41'0 0.0
2018-Jun-11 21:29N 37°56' E 023°41'0 0.0
2018-Jun-11 20:59N 37°56' E 023°41'0 0.0
2018-Jun-11 20:26N 37°56' E 023°41'0 0.0
2018-Jun-11 19:59N 37°56' E 023°41'0 0.0
2018-Jun-11 19:29N 37°56' E 023°41'0 0.0
2018-Jun-11 18:59N 37°56' E 023°41'0 0.0
2018-Jun-11 18:29N 37°56' E 023°41'0 0.0
2018-Jun-11 17:59N 37°56' E 023°41'0 0.0
2018-Jun-11 17:29N 37°56' E 023°41'0 0.0
2018-Jun-11 16:59N 37°56' E 023°41'0 0.0
2018-Jun-11 16:29N 37°56' E 023°41'0 0.0
2018-Jun-11 15:59N 37°56' E 023°41'0 0.0
2018-Jun-11 15:29N 37°56' E 023°41'0 0.0
2018-Jun-11 14:56N 37°56' E 023°41'0 0.0
2018-Jun-11 14:29N 37°56' E 023°41'0 0.0
2018-Jun-11 13:59N 37°56' E 023°41'0 0.0
2018-Jun-11 13:29N 37°56' E 023°41'0 0.0
2018-Jun-11 12:59N 37°56' E 023°41'0 0.0
2018-Jun-11 12:29N 37°56' E 023°41'0 0.0
2018-Jun-11 11:59N 37°56' E 023°41'0 0.0
2018-Jun-11 11:29N 37°56' E 023°41'0 0.0
2018-Jun-11 10:59N 37°56' E 023°41'0 0.0
2018-Jun-11 10:29N 37°56' E 023°41'0 0.0
2018-Jun-11 09:59N 37°56' E 023°41'0 0.0
2018-Jun-11 09:29N 37°56' E 023°41'0 0.0
2018-Jun-11 08:59N 37°56' E 023°41'0 0.0
2018-Jun-11 08:29N 37°56' E 023°41'0 0.0
2018-Jun-11 07:59N 37°56' E 023°41'0 0.0
2018-Jun-11 07:29N 37°56' E 023°41'0 0.0
2018-Jun-11 06:59N 37°56' E 023°41'0 0.0
2018-Jun-11 06:29N 37°56' E 023°41'0 0.0
2018-Jun-11 05:59N 37°56' E 023°41'0 0.0
2018-Jun-11 05:29N 37°56' E 023°41'0 0.0
2018-Jun-11 04:59N 37°56' E 023°41'0 0.0
2018-Jun-11 04:29N 37°56' E 023°41'0 0.0
2018-Jun-11 03:59N 37°56' E 023°41'0 0.0
2018-Jun-11 03:29N 37°56' E 023°41'0 0.0
2018-Jun-11 02:59N 37°56' E 023°41'0 0.0
2018-Jun-11 02:29N 37°56' E 023°41'0 0.0
2018-Jun-11 01:59N 37°56' E 023°41'0 0.0
2018-Jun-11 01:29N 37°56' E 023°41'0 0.0
2018-Jun-11 00:59N 37°56' E 023°41'0 0.0
2018-Jun-11 00:29N 37°56' E 023°41'0 0.0
2018-Jun-10 23:59N 37°56' E 023°41'0 0.0
2018-Jun-10 23:29N 37°56' E 023°41'0 0.0
2018-Jun-10 22:59N 37°56' E 023°41'0 0.0
2018-Jun-10 22:29N 37°56' E 023°41'0 0.0
2018-Jun-10 21:59N 37°56' E 023°41'0 0.0
2018-Jun-10 21:29N 37°56' E 023°41'0 0.0
2018-Jun-10 20:59N 37°56' E 023°41'0 0.0
2018-Jun-10 20:29N 37°56' E 023°41'0 0.0
2018-Jun-10 19:59N 37°56' E 023°41'0 0.0
2018-Jun-10 19:29N 37°56' E 023°41'0 0.0
2018-Jun-10 18:59N 37°56' E 023°41'0 0.0
2018-Jun-10 18:29N 37°56' E 023°41'0 0.0
2018-Jun-10 17:56N 37°56' E 023°41'0 0.0
2018-Jun-10 17:29N 37°56' E 023°41'0 0.0
2018-Jun-10 16:59N 37°56' E 023°41'0 0.0
2018-Jun-10 16:29N 37°56' E 023°41'0 0.0
2018-Jun-10 15:59N 37°56' E 023°41'0 0.0
2018-Jun-10 15:29N 37°56' E 023°41'0 0.0
2018-Jun-10 14:59N 37°56' E 023°41'0 0.0
2018-Jun-10 13:59N 37°56' E 023°41'0 0.0
2018-Jun-10 13:29N 37°56' E 023°41'0 0.0
2018-Jun-10 12:59N 37°56' E 023°41'0 0.0
2018-Jun-10 12:29N 37°56' E 023°41'0 0.0
2018-Jun-10 11:59N 37°56' E 023°41'0 0.0
2018-Jun-10 11:26N 37°56' E 023°41'0 0.0
2018-Jun-10 10:59N 37°56' E 023°41'0 0.0
2018-Jun-10 10:29N 37°56' E 023°41'0 0.0
2018-Jun-10 09:59N 37°56' E 023°41'0 0.0
2018-Jun-10 09:29N 37°56' E 023°41'0 0.0
2018-Jun-10 08:59N 37°56' E 023°41'0 0.0
2018-Jun-10 08:29N 37°56' E 023°41'0 0.0
2018-Jun-10 07:59N 37°56' E 023°41'0 0.0
2018-Jun-10 07:29N 37°56' E 023°41'0 0.0
2018-Jun-10 06:59N 37°56' E 023°41'0 0.0
2018-Jun-10 06:29N 37°56' E 023°41'0 0.0
2018-Jun-10 05:59N 37°56' E 023°41'0 0.0
2018-Jun-10 05:29N 37°56' E 023°41'0 0.0
2018-Jun-10 04:59N 37°56' E 023°41'0 0.0
2018-Jun-10 04:29N 37°56' E 023°41'0 0.0
2018-Jun-10 03:59N 37°56' E 023°41'0 0.0
2018-Jun-10 03:29N 37°56' E 023°41'0 0.0
2018-Jun-10 02:59N 37°56' E 023°41'0 0.0
2018-Jun-10 02:29N 37°56' E 023°41'0 0.0
2018-Jun-10 01:59N 37°56' E 023°41'0 0.0
2018-Jun-10 01:29N 37°56' E 023°41'0 0.0
2018-Jun-10 00:59N 37°56' E 023°41'0 0.0
2018-Jun-10 00:29N 37°56' E 023°41'0 0.0
2018-Jun-09 23:59N 37°56' E 023°41'0 0.0
2018-Jun-09 23:29N 37°56' E 023°41'0 0.0
2018-Jun-09 22:59N 37°56' E 023°41'0 0.0
2018-Jun-09 22:29N 37°56' E 023°41'0 0.0
2018-Jun-09 21:59N 37°56' E 023°41'0 0.0
2018-Jun-09 21:26N 37°56' E 023°41'0 0.0
2018-Jun-09 20:56N 37°56' E 023°41'0 0.0
2018-Jun-09 20:29N 37°56' E 023°41'0 0.0
2018-Jun-09 19:59N 37°56' E 023°41'0 0.0
2018-Jun-09 19:29N 37°56' E 023°41'0 0.0
2018-Jun-09 18:59N 37°56' E 023°41'0 0.0
2018-Jun-09 18:29N 37°56' E 023°41'0 0.0
2018-Jun-09 17:56N 37°56' E 023°41'0 0.0
2018-Jun-09 17:29N 37°56' E 023°41'0 0.0
2018-Jun-09 16:56N 37°56' E 023°41'0 0.0
2018-Jun-09 16:29N 37°56' E 023°41'0 0.0
2018-Jun-09 15:59N 37°56' E 023°41'0 0.0
2018-Jun-09 15:29N 37°56' E 023°41'0 0.0
2018-Jun-09 14:29N 37°56' E 023°41'0 0.0
2018-Jun-09 13:59N 37°56' E 023°41'0 0.0
2018-Jun-09 13:26N 37°56' E 023°41'0 0.0
2018-Jun-09 12:59N 37°56' E 023°41'0 0.0
2018-Jun-09 12:29N 37°56' E 023°41'0 0.0
2018-Jun-09 11:59N 37°56' E 023°41'0 0.0
2018-Jun-09 11:29N 37°56' E 023°41'0 0.0
2018-Jun-09 10:59N 37°56' E 023°41'0 0.0
2018-Jun-09 10:29N 37°56' E 023°41'0 0.0
2018-Jun-09 09:59N 37°56' E 023°41'0 0.0
2018-Jun-09 09:29N 37°56' E 023°41'0 0.0
2018-Jun-09 08:56N 37°56' E 023°41'0 0.0
2018-Jun-09 08:29N 37°56' E 023°41'0 0.0
2018-Jun-09 07:59N 37°56' E 023°41'0 0.0
2018-Jun-09 07:29N 37°56' E 023°41'0 0.0
2018-Jun-09 06:59N 37°56' E 023°41'0 0.0
2018-Jun-09 06:29N 37°56' E 023°41'0 0.0
2018-Jun-09 05:59N 37°56' E 023°41'0 0.0
2018-Jun-09 05:29N 37°56' E 023°41'0 0.0
2018-Jun-09 04:59N 37°56' E 023°41'0 0.0
2018-Jun-09 04:29N 37°56' E 023°41'0 0.0
2018-Jun-09 03:59N 37°56' E 023°41'0 0.0
2018-Jun-09 03:29N 37°56' E 023°41'0 0.0
2018-Jun-09 02:59N 37°56' E 023°41'0 0.0
2018-Jun-09 02:29N 37°56' E 023°41'0 0.0
2018-Jun-09 01:59N 37°56' E 023°41'0 0.0
2018-Jun-09 01:29N 37°56' E 023°41'0 0.0
2018-Jun-09 00:59N 37°56' E 023°41'0 0.0
2018-Jun-09 00:29N 37°56' E 023°41'0 0.0
2018-Jun-08 23:59N 37°56' E 023°41'0 0.0
2018-Jun-08 23:29N 37°56' E 023°41'0 0.0
2018-Jun-08 22:59N 37°56' E 023°41'0 0.0
2018-Jun-08 22:29N 37°56' E 023°41'0 0.0
2018-Jun-08 21:59N 37°56' E 023°41'0 0.0
2018-Jun-08 21:29N 37°56' E 023°41'0 0.0
2018-Jun-08 20:53N 37°56' E 023°41'0 0.0
2018-Jun-08 20:29N 37°56' E 023°41'0 0.0
2018-Jun-08 19:59N 37°56' E 023°41'0 0.0
2018-Jun-08 19:29N 37°56' E 023°41'0 0.0
2018-Jun-08 18:59N 37°56' E 023°41'  

Dump ship's entire track history